Miri — DF6613 — position and weather

sailwx.info

Track history (hours):
 
Tides and Currents Weather Stations Pressure Air Temp Water Temp Dewpoint Dewpoint Depression Visibility Wind Speed Wind Dir Waves Ship Positions

Miri

Last reported at 2017-Nov-16 18:05 UTC. Time now 2017-Nov-21 19:27 UTC.
Position N 27°48' W 015°18'.

Length 15 m.

Type: Sailing vessel. MMSI: 211308180.

Date/timePositionNaut miles runAvg speedWind from/ knotsBaromVisibWave heightAir tempDewpointWater temp
2017-Nov-16 18:05N 27°48' W 015°18'1 6.5
2017-Nov-16 17:56N 27°49' W 015°17'3 6.8
2017-Nov-16 17:26N 27°49' W 015°14'3 6.6
2017-Nov-16 16:56N 27°50' W 015°10'3 6.2
2017-Nov-16 16:26N 27°51' W 015°06'3 5.6
2017-Nov-16 15:55N 27°51' W 015°03'2 5.2
2017-Nov-16 15:30N 27°52' W 015°01'2 4.4
2017-Nov-16 15:00N 27°53' W 014°59'2 4.2
2017-Nov-16 14:30N 27°55' W 014°57'3 5.9
2017-Nov-16 14:00N 27°56' W 014°54'3 6.1
2017-Nov-16 13:29N 27°57' W 014°51'3 6.1
2017-Nov-16 13:00N 27°58' W 014°48'2 3.1
2017-Nov-16 12:30N 27°59' W 014°47'2 3.1
2017-Nov-16 12:00N 27°59' W 014°45'2 4.2
2017-Nov-16 11:29N 27°59' W 014°42'2 4.6
2017-Nov-16 11:00N 27°60' W 014°40'  
Track history (hours):
 
Tides and Currents Weather Stations Pressure Air Temp Water Temp Dewpoint Dewpoint Depression Visibility Wind Speed Wind Dir Waves Ship Positions

Miri

Last reported at 2017-Nov-16 18:05 UTC. Time now 2017-Nov-21 19:27 UTC.
Position N 27°48' W 015°18'.

Length 15 m.

Type: Sailing vessel. MMSI: 211308180.

Date/timePositionNaut miles runAvg speedWind from/ knotsBaromVisibWave heightAir tempDewpointWater temp
2017-Nov-16 18:05N 27°48' W 015°18'1 6.5
2017-Nov-16 17:56N 27°49' W 015°17'3 6.8
2017-Nov-16 17:26N 27°49' W 015°14'3 6.6
2017-Nov-16 16:56N 27°50' W 015°10'3 6.2
2017-Nov-16 16:26N 27°51' W 015°06'3 5.6
2017-Nov-16 15:55N 27°51' W 015°03'2 5.2
2017-Nov-16 15:30N 27°52' W 015°01'2 4.4
2017-Nov-16 15:00N 27°53' W 014°59'2 4.2
2017-Nov-16 14:30N 27°55' W 014°57'3 5.9
2017-Nov-16 14:00N 27°56' W 014°54'3 6.1
2017-Nov-16 13:29N 27°57' W 014°51'3 6.1
2017-Nov-16 13:00N 27°58' W 014°48'2 3.1
2017-Nov-16 12:30N 27°59' W 014°47'2 3.1
2017-Nov-16 12:00N 27°59' W 014°45'2 4.2
2017-Nov-16 11:29N 27°59' W 014°42'2 4.6
2017-Nov-16 11:00N 27°60' W 014°40'  

Dump ship's entire track history